地図

経路データ

SID SEASON NUMBER BASIN SUBBASIN NAME ISO_TIME NATURE LAT LON WMO_WIND WMO_PRES WMO_AGENCY TRACK_TYPE DIST2LAND LANDFALL IFLAG USA_AGENCY USA_ATCF_ID USA_LAT USA_LON USA_RECORD USA_STATUS USA_WIND USA_PRES USA_SSHS USA_R34_NE USA_R34_SE USA_R34_SW USA_R34_NW USA_R50_NE USA_R50_SE USA_R50_SW USA_R50_NW USA_R64_NE USA_R64_SE USA_R64_SW USA_R64_NW USA_POCI USA_ROCI USA_RMW USA_EYE TOKYO_LAT TOKYO_LON TOKYO_GRADE TOKYO_WIND TOKYO_PRES TOKYO_R50_DIR TOKYO_R50_LONG TOKYO_R50_SHORT TOKYO_R30_DIR TOKYO_R30_LONG TOKYO_R30_SHORT TOKYO_LAND CMA_LAT CMA_LON CMA_CAT CMA_WIND CMA_PRES HKO_LAT HKO_LON HKO_CAT HKO_WIND HKO_PRES NEWDELHI_LAT NEWDELHI_LON NEWDELHI_GRADE NEWDELHI_WIND NEWDELHI_PRES NEWDELHI_CI NEWDELHI_DP NEWDELHI_POCI REUNION_LAT REUNION_LON REUNION_TYPE REUNION_WIND REUNION_PRES REUNION_TNUM REUNION_CI REUNION_RMW REUNION_R34_NE REUNION_R34_SE REUNION_R34_SW REUNION_R34_NW REUNION_R50_NE REUNION_R50_SE REUNION_R50_SW REUNION_R50_NW REUNION_R64_NE REUNION_R64_SE REUNION_R64_SW REUNION_R64_NW BOM_LAT BOM_LON BOM_TYPE BOM_WIND BOM_PRES BOM_TNUM BOM_CI BOM_RMW BOM_R34_NE BOM_R34_SE BOM_R34_SW BOM_R34_NW BOM_R50_NE BOM_R50_SE BOM_R50_SW BOM_R50_NW BOM_R64_NE BOM_R64_SE BOM_R64_SW BOM_R64_NW BOM_ROCI BOM_POCI BOM_EYE BOM_POS_METHOD BOM_PRES_METHOD NADI_LAT NADI_LON NADI_CAT NADI_WIND NADI_PRES WELLINGTON_LAT WELLINGTON_LON WELLINGTON_WIND WELLINGTON_PRES DS824_LAT DS824_LON DS824_STAGE DS824_WIND DS824_PRES TD9636_LAT TD9636_LON TD9636_STAGE TD9636_WIND TD9636_PRES TD9635_LAT TD9635_LON TD9635_WIND TD9635_PRES TD9635_ROCI NEUMANN_LAT NEUMANN_LON NEUMANN_CLASS NEUMANN_WIND NEUMANN_PRES MLC_LAT MLC_LON MLC_CLASS MLC_WIND MLC_PRES USA_GUST BOM_GUST BOM_GUST_PER REUNION_GUST REUNION_GUST_PER USA_SEAHGT USA_SEARAD_NE USA_SEARAD_SE USA_SEARAD_SW USA_SEARAD_NW STORM_SPEED STORM_DIR
1898232N16126 1898 30 WP MM NOT_NAMED 1898-08-19 16:00:00 NR 16.1000 126.400 main 325 318 __________O___ -1 16.1000 126.400 7 6 297
1898232N16126 1898 30 WP MM NOT_NAMED 1898-08-19 18:00:00 NR 16.1978 126.204 main 319 309 __________P___ -1 16.1978 126.204 7 7 298
1898232N16126 1898 30 WP MM NOT_NAMED 1898-08-19 21:00:00 NR 16.3576 125.901 main 318 307 __________P___ -1 16.3576 125.901 7 7 301
1898232N16126 1898 30 WP MM NOT_NAMED 1898-08-20 00:00:00 NR 16.5518 125.580 main 322 287 __________P___ -1 16.5518 125.580 7 8 304
1898232N16126 1898 30 WP MM NOT_NAMED 1898-08-20 03:00:00 NR 16.8011 125.227 main 287 276 __________P___ -1 16.8011 125.227 7 9 307
1898232N16126 1898 30 WP MM NOT_NAMED 1898-08-20 04:00:00 NR 16.9000 125.100 main 276 244 __________O___ -1 16.9000 125.100 3 10 310
1898232N16126 1898 30 WP MM NOT_NAMED 1898-08-20 06:00:00 NR 17.1237 124.832 main 244 209 __________P___ -1 17.1237 124.832 3 11 313
1898232N16126 1898 30 WP MM NOT_NAMED 1898-08-20 09:00:00 NR 17.5098 124.404 main 209 182 __________P___ -1 17.5098 124.404 3 12 314
1898232N16126 1898 30 WP MM NOT_NAMED 1898-08-20 12:00:00 NR 17.9314 123.965 main 182 126 __________P___ -1 17.9314 123.965 3 12 316
1898232N16126 1898 30 WP MM NOT_NAMED 1898-08-20 15:00:00 NR 18.3602 123.537 main 126 116 __________P___ -1 18.3602 123.537 3 12 317
1898232N16126 1898 30 WP MM NOT_NAMED 1898-08-20 16:00:00 NR 18.5000 123.400 main 116 95 __________O___ -1 18.5000 123.400 4 11 317
1898232N16126 1898 30 WP MM NOT_NAMED 1898-08-20 18:00:00 NR 18.7608 123.136 main 95 86 __________P___ -1 18.7608 123.136 4 11 317
1898232N16126 1898 30 WP MM NOT_NAMED 1898-08-20 21:00:00 NR 19.1460 122.759 main 94 98 __________P___ -1 19.1460 122.759 4 10 318
1898232N16126 1898 30 WP MM NOT_NAMED 1898-08-21 00:00:00 NR 19.5211 122.411 main 123 123 __________P___ -1 19.5211 122.411 4 10 320
1898232N16126 1898 30 WP MM NOT_NAMED 1898-08-21 03:00:00 NR 19.8829 122.096 main 167 167 __________P___ -1 19.8829 122.096 4 9 321
1898232N16126 1898 30 WP MM NOT_NAMED 1898-08-21 04:00:00 NR 20.0000 122.000 main 179 179 __________O___ -1 20.0000 122.000 4 9 321
1898232N16126 1898 30 WP MM NOT_NAMED 1898-08-21 06:00:00 NR 20.2279 121.803 main 194 158 __________P___ -1 20.2279 121.803 4 9 322
1898232N16126 1898 30 WP MM NOT_NAMED 1898-08-21 09:00:00 NR 20.5574 121.539 main 158 119 __________P___ -1 20.5574 121.539 4 8 325
1898232N16126 1898 30 WP MM NOT_NAMED 1898-08-21 12:00:00 NR 20.8774 121.317 main 119 80 __________P___ -1 20.8774 121.317 4 7 330
1898232N16126 1898 30 WP MM NOT_NAMED 1898-08-21 15:00:00 NR 21.1941 121.145 main 80 70 __________P___ -1 21.1941 121.145 4 7 335
1898232N16126 1898 30 WP MM NOT_NAMED 1898-08-21 16:00:00 NR 21.3000 121.100 main 70 45 __________O___ -1 21.3000 121.100 4 7 338
1898232N16126 1898 30 WP MM NOT_NAMED 1898-08-21 18:00:00 NR 21.5296 120.995 main 45 0 __________P___ -1 21.5296 120.995 4 7 341
1898232N16126 1898 30 WP MM NOT_NAMED 1898-08-21 21:00:00 NR 21.8743 120.882 main 0 0 __________P___ -1 21.8743 120.882 4 7 348
1898232N16126 1898 30 WP MM NOT_NAMED 1898-08-22 00:00:00 NR 22.2058 120.834 main 0 0 __________P___ -1 22.2058 120.834 4 6 358
1898232N16126 1898 30 WP MM NOT_NAMED 1898-08-22 03:00:00 NR 22.5083 120.868 main 0 0 __________P___ -1 22.5083 120.868 4 6 7
1898232N16126 1898 30 WP MM NOT_NAMED 1898-08-22 04:00:00 NR 22.6000 120.900 main 0 0 __________O___ -1 22.6000 120.900 4 6 21
1898232N16126 1898 30 WP MM NOT_NAMED 1898-08-22 06:00:00 NR 22.7775 120.982 main 0 0 __________P___ -1 22.7775 120.982 4 6 32
1898232N16126 1898 30 WP MM NOT_NAMED 1898-08-22 09:00:00 NR 23.0127 121.181 main 0 0 __________P___ -1 23.0127 121.181 4 6 45
1898232N16126 1898 30 WP MM NOT_NAMED 1898-08-22 12:00:00 NR 23.2077 121.453 main 10 10 __________P___ -1 23.2077 121.453 4 7 58
1898232N16126 1898 30 WP MM NOT_NAMED 1898-08-22 15:00:00 NR 23.3595 121.782 main 40 40 __________P___ -1 23.3595 121.782 4 7 65
1898232N16126 1898 30 WP MM NOT_NAMED 1898-08-22 16:00:00 NR 23.4000 121.900 main 51 51 __________O___ -1 23.4000 121.900 4 7 72
1898232N16126 1898 30 WP MM NOT_NAMED 1898-08-22 18:00:00 NR 23.4659 122.147 main 65 74 __________P___ -1 23.4659 122.147 4 7 77
1898232N16126 1898 30 WP MM NOT_NAMED 1898-08-22 21:00:00 NR 23.5329 122.536 main 104 114 __________P___ -1 23.5329 122.536 4 7 82
1898232N16126 1898 30 WP MM NOT_NAMED 1898-08-23 00:00:00 NR 23.5719 122.943 main 142 150 __________P___ -1 23.5719 122.943 4 8 85
1898232N16126 1898 30 WP MM NOT_NAMED 1898-08-23 03:00:00 NR 23.5942 123.360 main 182 182 __________P___ -1 23.5942 123.360 4 8 87
1898232N16126 1898 30 WP MM NOT_NAMED 1898-08-23 04:00:00 NR 23.6000 123.500 main 191 __________O___ -1 23.6000 123.500 7 8 87

デジタル台風データ・検索

IBTrACS Databaseについて

本データベースは、米国NOAAが公開する1842年以降の世界の熱帯低気圧のベストトラックデータアーカイブInternational Best Track Archive for Climate Stewardship (IBTrACS)を、ウェブで閲覧しやすい形式に変換したものです。

最終更新日:2021-11-26